岡山空港の過去48時間の天気

岡山空港 (Okayama)

現在時刻: 10/16 15:50 JST (10/16 06:50 UTC) 以下の時間は現地時間です。

過去48時間のMETAR気象情報
時間 風向 風速(m/s) 視程 気温(℃) 湿度(%) 気圧(hPa) 天気現象
16 15:00 南南東 2 10km以上 20 64 1011
16 14:00 東南東 2 10km以上 21 60 1012
16 13:00 南東 3 10km以上 20 60 1012
16 12:00 不定 1 10km以上 19 64 1013
16 11:00 北北東 2 10km以上 19 68 1014
16 10:00 東南東 2 10km以上 19 64 1015
16 09:00 2 10km以上 16 77 1016
16 08:00 3 10km以上 16 77 1015
16 07:00 不定 1 10km以上 14 82 1015
16 06:15 2 10km以上 14 82 1015
15 21:00 北北西 3 10km以上 16 77 1017
15 20:00 北北西 3 10km以上 17 77 1017
15 19:00 北北西 2 10km以上 18 73 1016
15 18:00 西 1 10km以上 18 73 1015
15 17:00 南西 1 10km以上 20 60 1015
15 16:00 南南東 2 10km以上 21 56 1016
15 15:00 南南西 3 10km以上 22 53 1016
15 14:00 不定 2 10km以上 22 46 1016
15 13:00 3 10km以上 22 57 1017
15 12:00 南南西 2 10km以上 22 57 1017
15 11:00 北北東 2 10km以上 20 60 1018
15 10:00 不定 1 10km以上 20 64 1018
15 09:00 2 10km以上 18 77 1019
15 08:00 不定 1 10km以上 16 82 1019
15 07:00 不定 1 10km以上 14 94 1019
15 06:15 2 10km以上 14 88 1019
14 21:00 3 10km以上 16 77 1019
14 20:00 不定 1 10km以上 16 77 1020
14 19:00 北西 2 10km以上 16 77 1020
14 18:00 北西 2 10km以上 17 72 1019
14 17:00 南西 2 10km以上 17 68 1019
14 16:00 2 10km以上 19 60 1019
RJOB 160600Z 16004KT 130V200 9999 FEW025 SCT040 BKN140 20/13 Q1011
RJOB 160500Z 12003KT 080V170 9999 FEW025 SCT040 BKN170 21/13 Q1012
RJOB 160400Z 13005KT 060V180 9999 FEW020 SCT030 BKN/// 20/12 Q1012
RJOB 160300Z VRB02KT 9999 FEW025 SCT035 19/12 Q1013
RJOB 160200Z 02004KT 320V090 9999 FEW025 BKN/// 19/13 Q1014
RJOB 160100Z 12003KT 070V190 9999 FEW025 BKN/// 19/12 Q1015
RJOB 160000Z 08003KT 340V140 9999 FEW020 BKN/// 16/12 Q1016
RJOB 152300Z 36006KT 9999 FEW025 SCT030 BKN180 16/12 Q1015
RJOB 152200Z VRB01KT 9999 FEW020 BKN025 14/11 Q1015
RJOB 152115Z 36004KT 320V030 9999 FEW020 SCT025 BKN/// 14/11 Q1015 RMK 1CU020 4CU025 A3000
RJOB 151200Z 34005KT 300V020 9999 FEW025 16/12 Q1017
RJOB 151100Z 33005KT 310V010 9999 FEW025 SCT045 17/13 Q1017
RJOB 151000Z 34004KT 300V020 9999 FEW025 SCT050 18/13 Q1016
RJOB 150900Z 28001KT 9999 FEW025 SCT/// 18/13 Q1015
RJOB 150800Z 23002KT 9999 FEW030 SCT/// 20/12 Q1015
RJOB 150700Z 16004KT 9999 FEW030 SCT/// 21/12 Q1016
RJOB 150600Z 21005KT 9999 FEW030 SCT/// 22/12 Q1016
RJOB 150500Z VRB03KT 9999 FEW025 SCT040 BKN/// 22/10 Q1016
RJOB 150400Z 19005KT 120V270 9999 FEW025 SCT040 BKN/// 22/13 Q1017
RJOB 150300Z 20004KT 130V250 9999 FEW025 SCT035 BKN/// 22/13 Q1017
RJOB 150200Z 03004KT 340V090 9999 FEW020 SCT035 BKN/// 20/12 Q1018
RJOB 150100Z VRB02KT 9999 FEW020 SCT/// 20/13 Q1018
RJOB 150000Z 35004KT 310V030 9999 FEW020 SCT150 BKN/// 18/14 Q1019
RJOB 142300Z VRB01KT 9999 FEW020 SCT160 BKN/// 16/13 Q1019
RJOB 142200Z VRB02KT 9999 FEW020 SCT150 BKN/// 14/13 Q1019
RJOB 142115Z 35003KT 290V020 9999 FEW020 SCT130 BKN/// 14/12 Q1019 RMK 1CU020 3AC130 A3010
RJOB 141200Z 01005KT 340V070 9999 FEW020 BKN/// 16/12 Q1019
RJOB 141100Z VRB02KT 9999 FEW020 BKN/// 16/12 Q1020
RJOB 141000Z 31003KT 9999 FEW020 BKN/// 16/12 Q1020
RJOB 140900Z 32004KT 9999 FEW025 BKN/// 17/12 Q1019
RJOB 140800Z 22003KT 9999 FEW025 BKN/// 17/11 Q1019
RJOB 140700Z 19004KT 9999 FEW030 BKN/// 19/11 Q1019